Badan Meteorologi, Klimatologi, dan Geofisika

CUACA TERKINI BANDARA KUALANAMU

Senin, 21 Juni 2021 02:06 UTC

Cuaca : Cerah - berawan

Angin : (dari) Timur Laut, 5.6 km/jam

Jarak Pandang : >=10 km

Suhu : 29 °C

Waktu Pengamatan : 09:30 WIB

Selengkapnya>>>

DATA METEOROLOGI KUALANAMU

Data Metar Terbaru

WIMM 210230Z 05003KT 9999 FEW018 29/23 Q1011 NOSIG=

WIMM 210200Z 33002KT 9999 FEW018 29/24 Q1011 NOSIG=

WIMM 210130Z 25004KT 8000 FEW018 27/24 Q1011 NOSIG=

WIMM 210100Z 00000KT 6000 FEW018 26/24 Q1011 NOSIG=

WIMM 210030Z 24003KT 4000 2700 HZ FEW025 24/23 Q1010 NOSIG=

WIMM 210000Z 25003KT 5000 HZ FEW025 23/23 Q1010 NOSIG=

TAF WIMM 202300Z 2100/2200 VRB04KT 6000 SCT018 BECMG 2102/2104 35010KT 9999 BECMG 2110/2112 23005KT 4000 HZ FEW017CB =

Selengkapnya>>>

Data TAF Terbaru

TAF WIMM 202300Z 2100/2200 VRB04KT 6000 SCT018 BECMG 2102/2104 35010KT 9999 BECMG 2110/2112 23005KT 4000 HZ FEW017CB =

Selengkapnya>>>

CITRA SATELIT

Enhanced
Citra Satelit
Cloud Type
Citra Satelit IR
Hotspot
Citra Satelit
Sebaran Asap
Citra Satelit